Time;durP1;ratioP1;P1;durP2;ratioP2;P2;SDS_P1;SDS_P2;PMS_P1;PMS_P2;Temp;Humidity;BMP_temperature;BMP_pressure;BME280_temperature;BME280_humidity;BME280_pressure;Samples;Min_cycle;Max_cycle;Signal;HPM_P1;HPM_P2
2022/01/20 00:01:41;;;;;;;20.80;3.80;;;;;;;6.03;53.52;100514.06;5113289;28;20501;-72
2022/01/20 00:04:17;;;;;;;23.20;4.88;;;;;;;5.46;54.68;100513.72;5112402;28;20471;-72
2022/01/20 00:09:47;;;;;;;21.15;4.43;;;;;;;5.77;54.29;100513.72;5112251;28;20122;-72
2022/01/20 00:23:40;;;;;;;31.00;5.80;;;;;;;5.99;54.75;100512.66;5112750;28;20460;-72
2022/01/20 00:26:16;;;;;;;22.60;6.05;;;;;;;6.20;54.28;100523.22;5111696;28;20050;-72
2022/01/20 00:28:48;;;;;;;29.67;6.43;;;;;;;5.75;55.12;100521.81;5112340;28;20126;-73
2022/01/20 00:33:54;;;;;;;17.92;6.32;;;;;;;5.59;56.00;100524.13;5111812;28;20048;-73
2022/01/20 00:39:03;;;;;;;21.30;6.07;;;;;;;5.63;56.83;100522.91;5113349;28;20067;-72
2022/01/20 00:41:30;;;;;;;21.55;5.70;;;;;;;5.18;57.98;100520.53;5112450;28;20123;-72
2022/01/20 00:43:56;;;;;;;22.70;5.90;;;;;;;5.04;58.68;100519.06;5111739;28;20058;-73
2022/01/20 00:46:23;;;;;;;28.60;6.55;;;;;;;5.08;58.24;100514.31;5113656;28;20494;-72
2022/01/20 00:48:50;;;;;;;33.85;6.25;;;;;;;5.11;58.12;100521.16;5116861;28;20047;-73
2022/01/20 00:51:16;;;;;;;29.73;5.78;;;;;;;5.80;56.08;100523.22;5117502;28;20424;-72
2022/01/20 00:53:44;;;;;;;35.35;5.80;;;;;;;5.87;55.90;100524.38;5117449;28;20108;-73
2022/01/20 00:56:12;;;;;;;31.35;4.85;;;;;;;4.61;58.75;100500.53;5116529;28;20063;-72
2022/01/20 00:58:39;;;;;;;41.42;4.68;;;;;;;5.40;56.87;100526.69;5115665;28;20071;-72
2022/01/20 01:01:06;;;;;;;44.65;5.00;;;;;;;5.15;56.24;100526.13;5116697;28;20051;-74
2022/01/20 01:03:33;;;;;;;33.50;4.40;;;;;;;5.75;55.24;100535.13;5116772;28;20049;-73
2022/01/20 01:06:14;;;;;;;32.85;5.43;;;;;;;5.24;56.31;100533.31;5116869;28;20396;-73
2022/01/20 01:08:41;;;;;;;;;;;;;;;5.25;55.71;100529.69;5116813;28;20054;-73
2022/01/20 01:11:08;;;;;;;32.13;4.05;;;;;;;5.23;55.39;100550.25;5115429;28;20010;-73
2022/01/20 01:13:35;;;;;;;26.50;3.80;;;;;;;5.19;55.57;100540.84;5115285;28;20035;-73
2022/01/20 01:16:03;;;;;;;39.25;5.13;;;;;;;5.36;54.94;100536.75;5115082;28;20130;-73
2022/01/20 01:21:29;;;;;;;34.75;4.68;;;;;;;4.98;55.61;100534.69;5115900;28;20122;-73
2022/01/20 01:23:56;;;;;;;40.13;5.03;;;;;;;5.16;54.75;100534.94;5115972;28;20062;-73
2022/01/20 01:26:25;;;;;;;25.90;4.50;;;;;;;4.53;55.93;100540.19;5115983;28;20063;-73
2022/01/20 01:28:52;;;;;;;34.58;5.53;;;;;;;4.49;55.52;100530.78;5098405;28;20432;-73
2022/01/20 01:31:35;;;;;;;52.88;5.40;;;;;;;5.11;53.97;100527.38;5115440;28;20070;-73
2022/01/20 01:34:09;;;;;;;36.33;4.63;;;;;;;4.88;53.99;100539.06;5097410;28;20078;-73
2022/01/20 01:36:50;;;;;;;37.95;4.63;;;;;;;4.77;54.83;100567.38;5115502;28;20050;-72
2022/01/20 01:39:17;;;;;;;43.63;5.10;;;;;;;5.13;53.45;100556.47;5115566;28;20176;-74
2022/01/20 01:41:45;;;;;;;39.45;4.13;;;;;;;5.11;53.49;100566.38;5116307;28;20134;-73
2022/01/20 01:44:19;;;;;;;38.83;5.22;;;;;;;4.89;53.65;100573.50;5116325;28;20551;-72
2022/01/20 01:46:46;;;;;;;33.95;4.47;;;;;;;5.13;52.38;100567.09;5116107;28;20398;-72
2022/01/20 01:49:14;;;;;;;32.22;4.75;;;;;;;4.99;52.94;100570.91;5115582;28;20039;-73
2022/01/20 01:51:40;;;;;;;38.95;5.63;;;;;;;4.63;53.46;100554.41;5115388;28;20044;-73
2022/01/20 01:54:07;;;;;;;26.88;4.13;;;;;;;4.57;53.17;100557.53;5115164;28;20415;-73
2022/01/20 01:56:35;;;;;;;35.30;4.65;;;;;;;4.28;53.47;100559.88;5114539;28;20126;-72
2022/01/20 01:59:02;;;;;;;34.45;3.65;;;;;;;4.67;52.66;100557.66;5114855;28;20096;-73
2022/01/20 02:01:33;;;;;;;30.05;3.78;;;;;;;4.92;51.30;100553.78;5115892;28;20108;-74
2022/01/20 02:04:10;;;;;;;32.30;4.65;;;;;;;4.76;51.50;100554.19;5115844;28;20471;-73
2022/01/20 02:07:52;;;;;;;38.65;4.40;;;;;;;4.68;51.26;100549.53;5116709;28;20048;-72
2022/01/20 02:18:43;;;;;;;39.05;3.83;;;;;;;4.99;48.34;100558.47;5115146;28;20050;-72
2022/01/20 02:21:10;;;;;;;45.70;4.78;;;;;;;5.19;48.61;100556.78;5114448;28;20432;-73
2022/01/20 02:23:36;;;;;;;29.20;4.30;;;;;;;4.45;49.33;100548.78;5114596;28;20078;-73
2022/01/20 02:26:03;;;;;;;25.30;4.38;;;;;;;4.77;49.41;100554.09;5115653;28;20410;-74
2022/01/20 02:28:29;;;;;;;35.97;3.65;;;;;;;4.66;48.69;100562.13;5114561;28;20043;-74
2022/01/20 02:30:57;;;;;;;27.15;3.63;;;;;;;4.56;49.56;100564.69;5114475;28;20505;-73
2022/01/20 02:33:27;;;;;;;38.78;3.33;;;;;;;4.55;49.91;100560.31;5114446;28;20093;-73
2022/01/20 02:36:01;;;;;;;29.20;3.20;;;;;;;4.23;50.42;100554.09;5092853;28;20047;-74
2022/01/20 02:38:35;;;;;;;35.53;4.07;;;;;;;4.27;50.87;100560.84;5114056;28;20458;-73
2022/01/20 02:46:35;;;;;;;29.42;3.47;;;;;;;4.20;49.92;100541.06;5113979;28;20051;-72
2022/01/20 02:49:02;;;;;;;32.83;4.60;;;;;;;4.01;50.17;100545.19;5115115;28;20063;-72
2022/01/20 02:51:28;;;;;;;30.70;3.35;;;;;;;4.15;50.35;100552.06;5114235;28;20067;-73
2022/01/20 02:53:55;;;;;;;28.15;3.70;;;;;;;4.49;49.73;100547.56;5113696;28;20107;-73
2022/01/20 02:56:21;;;;;;;25.02;3.00;;;;;;;3.61;50.72;100552.78;5114707;28;20118;-73
2022/01/20 02:58:47;;;;;;;26.77;3.58;;;;;;;4.15;49.99;100538.78;5114604;28;20055;-72
2022/01/20 03:01:14;;;;;;;25.15;3.30;;;;;;;3.97;50.43;100524.34;5113899;28;20460;-73
2022/01/20 03:03:41;;;;;;;25.45;3.08;;;;;;;3.84;50.20;100519.16;5113565;28;20071;-73
2022/01/20 03:06:08;;;;;;;20.90;2.90;;;;;;;4.08;50.50;100529.63;5113853;28;20118;-72
2022/01/20 03:08:35;;;;;;;22.73;2.88;;;;;;;3.72;51.16;100523.59;5113941;28;20058;-72
2022/01/20 03:11:01;;;;;;;20.27;3.33;;;;;;;3.60;52.45;100516.63;5105957;28;20075;-72
2022/01/20 03:13:28;;;;;;;23.98;3.03;;;;;;;3.75;51.73;100504.78;5113666;28;20075;-72
2022/01/20 03:15:54;;;;;;;20.63;3.45;;;;;;;3.70;52.14;100511.44;5115073;28;20130;-72
2022/01/20 03:18:21;;;;;;;25.13;3.22;;;;;;;3.56;52.98;100509.88;5114434;28;20050;-72
2022/01/20 03:20:47;;;;;;;15.82;2.33;;;;;;;3.44;52.29;100497.53;5113832;28;20523;-72
2022/01/20 03:23:14;;;;;;;19.25;2.80;;;;;;;3.81;52.45;100503.47;5113866;28;20092;-72
2022/01/20 03:25:40;;;;;;;21.00;3.55;;;;;;;3.58;52.40;100495.50;5115152;28;20115;-73
2022/01/20 03:28:07;;;;;;;35.90;4.07;;;;;;;3.71;51.97;100495.38;5114676;28;20543;-72
2022/01/20 03:30:34;;;;;;;25.80;3.33;;;;;;;3.99;51.80;100494.03;5107273;28;20135;-73
2022/01/20 03:33:01;;;;;;;26.15;2.97;;;;;;;3.95;51.31;100484.63;5113811;28;20089;-72
2022/01/20 03:35:28;;;;;;;26.83;3.33;;;;;;;4.27;50.61;100491.78;5114935;28;20043;-72
2022/01/20 03:37:54;;;;;;;29.08;3.13;;;;;;;4.31;50.05;100485.25;5114655;28;20040;-72
2022/01/20 03:40:23;;;;;;;19.35;2.88;;;;;;;3.97;50.84;100480.03;5113702;28;20127;-72
2022/01/20 03:42:50;;;;;;;34.95;3.85;;;;;;;3.80;51.50;100460.16;5113108;28;20548;-74
2022/01/20 03:45:16;;;;;;;30.00;3.50;;;;;;;4.29;49.86;100465.97;5113980;28;20054;-73
2022/01/20 03:47:43;;;;;;;25.35;3.60;;;;;;;4.18;50.32;100461.53;5114233;28;20044;-72
2022/01/20 03:50:59;;;;;;;27.23;3.03;;;;;;;4.20;49.95;100464.88;5113767;28;20062;-72
2022/01/20 03:52:56;;;;;;;36.97;3.75;;;;;;;4.07;50.01;100473.03;5114659;28;20066;-72
2022/01/20 03:55:23;;;;;;;24.13;4.32;;;;;;;3.58;51.46;100457.53;5113754;28;20404;-72
2022/01/20 03:57:49;;;;;;;39.17;3.97;;;;;;;4.17;50.03;100448.38;5113293;28;20135;-72
2022/01/20 04:00:15;;;;;;;25.17;3.65;;;;;;;3.87;51.29;100460.53;5114265;28;20126;-72
2022/01/20 04:02:42;;;;;;;43.90;5.07;;;;;;;3.86;51.02;100459.69;5114656;28;20074;-72
2022/01/20 04:05:09;;;;;;;31.70;3.80;;;;;;;3.67;51.52;100443.53;5113501;28;20059;-72
2022/01/20 04:07:35;;;;;;;29.73;3.80;;;;;;;4.18;50.43;100431.50;5113573;28;20063;-72
2022/01/20 04:10:02;;;;;;;35.72;4.63;;;;;;;3.70;51.95;100427.38;5113404;28;20122;-74
2022/01/20 04:12:28;;;;;;;29.85;5.72;;;;;;;3.66;52.29;100431.25;5113660;28;20131;-72
2022/01/20 04:14:55;;;;;;;29.25;3.60;;;;;;;3.74;51.68;100425.31;5113604;28;20134;-72
2022/01/20 04:17:26;;;;;;;28.90;4.95;;;;;;;3.89;51.31;100428.53;5114136;28;20066;-72
2022/01/20 04:19:52;;;;;;;39.30;4.75;;;;;;;3.88;52.15;100442.78;5113424;28;20115;-72
2022/01/20 04:22:19;;;;;;;32.58;4.65;;;;;;;4.26;51.55;100453.78;5116053;28;20103;-72
2022/01/20 04:24:47;;;;;;;34.38;4.15;;;;;;;3.80;53.56;100435.44;5118759;28;20054;-72
2022/01/20 04:27:13;;;;;;;33.78;5.10;;;;;;;4.32;52.21;100449.78;5119092;28;20064;-73
2022/01/20 04:29:40;;;;;;;33.22;4.10;;;;;;;4.04;52.91;100493.69;5117003;28;20483;-74
2022/01/20 04:32:07;;;;;;;27.33;3.78;;;;;;;3.68;54.45;100575.22;5116662;28;20067;-73
2022/01/20 04:34:33;;;;;;;12.10;1.73;;;;;;;2.45;57.55;100561.56;5117338;28;20192;-73
2022/01/20 04:37:04;;;;;;;8.60;1.63;;;;;;;2.78;57.97;100559.06;5117690;28;20074;-73
2022/01/20 04:39:33;;;;;;;10.73;1.50;;;;;;;2.52;58.80;100561.00;5116376;28;20050;-73
2022/01/20 04:42:00;;;;;;;15.23;1.58;;;;;;;2.55;58.90;100557.28;5117513;28;20066;-72
2022/01/20 04:57:54;;;;;;;14.57;1.50;;;;;;;2.32;56.11;100520.09;5115149;28;20058;-73
2022/01/20 05:00:20;;;;;;;15.57;1.70;;;;;;;2.58;54.89;100523.50;5115715;28;20047;-73
2022/01/20 05:02:46;;;;;;;11.30;2.10;;;;;;;2.47;55.00;100518.13;5116540;28;20194;-72
2022/01/20 05:05:13;;;;;;;10.80;2.20;;;;;;;2.32;55.03;100512.16;5116066;28;20048;-72
2022/01/20 05:07:40;;;;;;;16.20;2.03;;;;;;;2.02;55.11;100517.00;5116409;28;20131;-72
2022/01/20 05:10:10;;;;;;;19.52;2.20;;;;;;;2.80;54.00;100525.38;5096186;28;20078;-72
2022/01/20 05:13:23;;;;;;;13.25;1.40;;;;;;;2.14;54.08;100532.88;5116154;28;20071;-72
2022/01/20 05:15:24;;;;;;;14.15;2.42;;;;;;;2.74;53.45;100532.94;5105702;28;20075;-73
2022/01/20 05:17:52;;;;;;;13.98;1.58;;;;;;;2.55;53.66;100520.22;5115976;27;20051;-72
2022/01/20 05:20:19;;;;;;;14.77;1.95;;;;;;;2.48;52.63;100521.59;5116342;28;20048;-74
2022/01/20 05:22:45;;;;;;;12.00;2.00;;;;;;;3.23;52.50;100526.56;5116137;28;20048;-74
2022/01/20 05:25:12;;;;;;;14.80;2.25;;;;;;;2.95;52.83;100525.19;5116798;28;20043;-73
2022/01/20 05:27:39;;;;;;;15.57;2.00;;;;;;;2.64;53.49;100522.16;5117029;28;20050;-73
2022/01/20 05:30:06;;;;;;;16.20;2.15;;;;;;;2.94;53.03;100523.50;5116203;28;20453;-72
2022/01/20 05:32:32;;;;;;;18.42;2.20;;;;;;;3.17;52.01;100512.00;5116125;28;20463;-72
2022/01/20 05:34:59;;;;;;;15.07;2.28;;;;;;;3.10;52.76;100501.00;5113787;28;20103;-73
2022/01/20 05:37:25;;;;;;;14.55;2.22;;;;;;;2.31;52.46;100489.28;5115942;28;20099;-72
2022/01/20 05:39:52;;;;;;;26.08;2.63;;;;;;;2.67;51.87;100488.34;5114838;27;20053;-72
2022/01/20 05:42:18;;;;;;;27.90;3.85;;;;;;;2.91;51.42;100500.72;5115025;28;20126;-72
2022/01/20 05:44:49;;;;;;;19.75;2.95;;;;;;;2.52;51.71;100513.34;5114354;28;20046;-72
2022/01/20 05:47:25;;;;;;;17.90;2.92;;;;;;;2.59;50.95;100493.38;5114911;28;20048;-72
2022/01/20 05:49:51;;;;;;;21.05;2.67;;;;;;;2.38;50.93;100506.41;5115654;28;20131;-72
2022/01/20 05:52:19;;;;;;;27.38;2.90;;;;;;;3.36;49.41;100516.72;5113814;28;20522;-72
2022/01/20 05:54:45;;;;;;;24.05;2.65;;;;;;;3.41;48.91;100521.66;5114643;28;20092;-72
2022/01/20 05:57:12;;;;;;;22.65;3.00;;;;;;;2.71;49.94;100522.56;5115629;28;20118;-72
2022/01/20 05:59:39;;;;;;;16.05;2.33;;;;;;;2.97;49.66;100540.00;5115229;28;20121;-72
2022/01/20 06:02:13;;;;;;;15.82;2.45;;;;;;;2.90;50.64;100530.84;5115080;28;20128;-72
2022/01/20 06:04:40;;;;;;;17.63;2.25;;;;;;;2.83;49.85;100530.44;5114225;28;20047;-72
2022/01/20 06:07:07;;;;;;;24.10;2.53;;;;;;;2.62;51.28;100532.88;5114935;28;20062;-73
2022/01/20 06:09:33;;;;;;;17.35;2.63;;;;;;;2.85;50.66;100535.63;5115076;28;20043;-72
2022/01/20 06:12:00;;;;;;;15.40;2.40;;;;;;;3.29;50.34;100553.47;5114227;28;20461;-72
2022/01/20 06:14:28;;;;;;;15.75;2.42;;;;;;;2.92;50.71;100576.59;5114171;28;20051;-72
2022/01/20 06:16:55;;;;;;;16.98;2.80;;;;;;;2.63;51.23;100558.41;5113763;28;20051;-72
2022/01/20 06:19:22;;;;;;;28.70;2.47;;;;;;;2.45;49.86;100557.13;5113276;28;20491;-72
2022/01/20 06:21:48;;;;;;;12.18;2.10;;;;;;;2.35;48.07;100562.22;5113678;28;20093;-72
2022/01/20 06:24:15;;;;;;;16.95;2.22;;;;;;;2.41;46.65;100575.03;5114254;28;20067;-72
2022/01/20 06:26:41;;;;;;;19.08;2.40;;;;;;;2.54;47.02;100566.19;5113531;28;20142;-72
2022/01/20 06:29:07;;;;;;;7.68;1.92;;;;;;;2.63;45.85;100592.00;5113524;28;20613;-71
2022/01/20 06:31:34;;;;;;;23.50;2.28;;;;;;;3.06;45.33;100589.66;5112818;28;20079;-72
2022/01/20 06:34:00;;;;;;;13.73;2.05;;;;;;;2.13;45.71;100568.22;5113615;28;20047;-73
2022/01/20 06:36:27;;;;;;;17.90;2.13;;;;;;;2.40;44.28;100602.44;5114421;28;20131;-71
2022/01/20 06:38:54;;;;;;;20.25;2.47;;;;;;;2.36;44.79;100594.84;5113538;28;20063;-71
2022/01/20 06:41:20;;;;;;;8.70;1.65;;;;;;;2.45;42.81;100604.78;5113905;28;20127;-73
2022/01/20 06:43:47;;;;;;;10.45;1.95;;;;;;;2.13;42.30;100610.56;5113379;28;20139;-72
2022/01/20 06:46:14;;;;;;;10.18;1.73;;;;;;;2.28;41.78;100616.56;5113545;28;20082;-72
2022/01/20 06:48:40;;;;;;;19.90;2.25;;;;;;;2.56;40.99;100633.13;5113125;28;20059;-73
2022/01/20 06:51:07;;;;;;;14.18;1.50;;;;;;;1.86;42.03;100629.19;5115354;28;20047;-74
2022/01/20 06:53:34;;;;;;;10.65;2.28;;;;;;;2.49;41.63;100653.91;5114009;28;20454;-72
2022/01/20 06:56:00;;;;;;;13.77;1.85;;;;;;;2.11;41.10;100649.53;5114120;28;20444;-72
2022/01/20 06:58:26;;;;;;;12.70;1.77;;;;;;;2.32;41.46;100656.91;5114893;28;20114;-73
2022/01/20 07:00:53;;;;;;;12.00;1.60;;;;;;;2.34;41.21;100665.56;5114514;28;20110;-72
2022/01/20 07:03:24;;;;;;;8.68;1.70;;;;;;;2.23;42.37;100666.31;5110574;28;20051;-72
2022/01/20 07:05:50;;;;;;;6.25;1.42;;;;;;;2.36;41.36;100664.50;5115409;28;20047;-72
2022/01/20 07:08:18;;;;;;;19.08;1.80;;;;;;;2.58;41.11;100674.44;5113728;28;20123;-72
2022/01/20 07:10:44;;;;;;;18.02;1.50;;;;;;;2.84;41.20;100690.25;5113799;28;20074;-72
2022/01/20 07:13:11;;;;;;;10.27;1.92;;;;;;;2.96;40.94;100692.00;5113988;28;20127;-72
2022/01/20 07:15:37;;;;;;;10.05;2.20;;;;;;;2.90;40.78;100697.75;5114288;28;20130;-73
2022/01/20 07:18:04;;;;;;;12.77;1.55;;;;;;;2.40;42.12;100716.28;5114124;28;20074;-73
2022/01/20 07:20:31;;;;;;;19.52;2.13;;;;;;;2.91;40.44;100718.84;5096020;28;20130;-74
2022/01/20 07:22:58;;;;;;;15.38;2.65;;;;;;;2.73;41.03;100719.31;5114596;28;20134;-74
2022/01/20 07:25:24;;;;;;;11.10;1.42;;;;;;;2.50;42.46;100732.38;5112449;28;20122;-74
2022/01/20 07:27:51;;;;;;;19.90;2.05;;;;;;;2.52;41.67;100742.88;5113832;28;20126;-74
2022/01/20 07:30:38;;;;;;;16.75;2.20;;;;;;;2.53;42.24;100745.41;5114262;28;20058;-73
2022/01/20 07:33:05;;;;;;;17.02;1.98;;;;;;;2.34;42.74;100751.16;5114754;28;20062;-74
2022/01/20 07:35:34;;;;;;;19.98;2.40;;;;;;;3.09;40.74;100751.09;5113598;28;20120;-73
2022/01/20 07:38:00;;;;;;;12.35;1.77;;;;;;;2.48;41.58;100762.56;5113588;28;20059;-73
2022/01/20 07:40:31;;;;;;;17.27;2.00;;;;;;;2.97;40.46;100762.63;5114111;28;20078;-73
2022/01/20 07:42:57;;;;;;;11.48;2.17;;;;;;;2.85;40.95;100756.38;5113047;28;20130;-72
2022/01/20 07:45:25;;;;;;;13.13;2.15;;;;;;;2.94;41.11;100765.47;5113381;28;20122;-73
2022/01/20 07:47:51;;;;;;;14.05;2.45;;;;;;;2.95;41.52;100774.28;5108844;28;20475;-73
2022/01/20 07:50:18;;;;;;;14.57;2.20;;;;;;;3.14;40.51;100774.66;5113301;28;20067;-74
2022/01/20 07:52:45;;;;;;;16.48;2.40;;;;;;;3.38;40.35;100767.56;5114078;28;20491;-72
2022/01/20 07:55:11;;;;;;;11.73;2.17;;;;;;;2.38;41.12;100760.56;5113775;28;20048;-74
2022/01/20 07:57:38;;;;;;;13.63;2.17;;;;;;;2.76;41.06;100759.69;5113143;28;20116;-74
2022/01/20 08:00:06;;;;;;;22.63;3.15;;;;;;;2.56;41.17;100761.09;5114008;28;20040;-73
2022/01/20 08:02:33;;;;;;;38.13;4.85;;;;;;;2.84;41.16;100765.28;5115195;28;20047;-72
2022/01/20 08:04:59;;;;;;;17.80;4.30;;;;;;;3.11;40.27;100782.81;5114615;28;20056;-72
2022/01/20 08:07:26;;;;;;;28.00;2.33;;;;;;;2.68;40.23;100785.84;5113496;28;20075;-71
2022/01/20 08:09:59;;;;;;;17.88;2.17;;;;;;;2.70;40.29;100789.25;5114548;28;20058;-74
2022/01/20 08:12:28;;;;;;;19.58;3.00;;;;;;;3.20;39.83;100795.41;5112881;28;20047;-73
2022/01/20 08:14:56;;;;;;;21.88;2.95;;;;;;;3.04;39.95;100790.38;5114541;28;20052;-74
2022/01/20 08:17:23;;;;;;;20.98;3.63;;;;;;;3.04;39.53;100786.88;5113434;28;20123;-72
2022/01/20 08:19:50;;;;;;;15.55;2.40;;;;;;;3.58;39.24;100807.66;5112945;28;20596;-72
2022/01/20 08:22:16;;;;;;;14.90;3.22;;;;;;;3.30;39.32;100807.03;5113992;28;20122;-73
2022/01/20 08:25:05;;;;;;;29.95;3.58;;;;;;;3.37;39.23;100810.09;5113968;28;20052;-78
2022/01/20 08:27:32;;;;;;;20.92;2.55;;;;;;;3.19;38.98;100812.28;5115589;28;20484;-74
2022/01/20 08:29:58;;;;;;;22.88;3.20;;;;;;;3.17;39.45;100808.91;5116039;28;20043;-74
2022/01/20 08:32:25;;;;;;;22.25;2.63;;;;;;;2.98;39.18;100816.47;5115403;28;20047;-76
2022/01/20 08:34:51;;;;;;;17.00;2.47;;;;;;;3.04;39.05;100823.97;5116045;28;20048;-76
2022/01/20 08:37:18;;;;;;;17.73;2.78;;;;;;;3.23;38.95;100824.34;5115268;28;20436;-75
2022/01/20 08:39:45;;;;;;;22.17;3.92;;;;;;;3.33;39.60;100817.41;5114755;28;20131;-74
2022/01/20 08:42:12;;;;;;;24.80;3.05;;;;;;;3.22;39.25;100822.66;5116082;28;20071;-74
2022/01/20 08:44:40;;;;;;;20.27;2.75;;;;;;;3.16;39.80;100807.19;5115343;28;20063;-75
2022/01/20 08:47:14;;;;;;;16.88;2.58;;;;;;;2.80;39.68;100819.44;5115044;28;20067;-76
2022/01/20 08:49:42;;;;;;;17.00;2.72;;;;;;;3.19;39.36;100827.34;5114208;28;20071;-76
2022/01/20 08:52:08;;;;;;;21.17;3.08;;;;;;;3.14;39.30;100823.22;5116150;28;20122;-75
2022/01/20 08:54:35;;;;;;;24.52;3.75;;;;;;;3.23;39.56;100819.03;5114332;28;20039;-76
2022/01/20 08:57:01;;;;;;;20.00;2.65;;;;;;;3.09;40.30;100829.78;5114367;28;20058;-75
2022/01/20 08:59:28;;;;;;;16.35;2.45;;;;;;;3.78;38.60;100830.94;5113287;28;20067;-75
2022/01/20 09:01:55;;;;;;;17.92;2.58;;;;;;;3.70;39.55;100824.50;5113554;28;20040;-78
2022/01/20 09:04:22;;;;;;;17.55;2.78;;;;;;;3.74;38.93;100828.63;5112888;28;20069;-76
2022/01/20 09:06:48;;;;;;;15.38;2.40;;;;;;;3.51;39.95;100825.84;5114764;28;20079;-76
2022/01/20 09:09:17;;;;;;;19.08;3.00;;;;;;;3.61;39.03;100826.84;5113613;28;20214;-76
2022/01/20 09:12:02;;;;;;;25.50;3.17;;;;;;;3.49;39.62;100819.81;5115849;28;20135;-76
2022/01/20 09:17:13;;;;;;;17.92;2.92;;;;;;;3.93;39.72;100820.13;5114390;28;20062;-74
2022/01/20 09:19:40;;;;;;;22.35;3.13;;;;;;;4.21;39.14;100830.38;5115424;28;20071;-73
2022/01/20 09:22:07;;;;;;;19.67;3.00;;;;;;;4.33;39.07;100821.47;5115710;28;20064;-73
2022/01/20 09:24:33;;;;;;;32.63;3.58;;;;;;;3.91;39.64;100836.19;5114635;28;20123;-74
2022/01/20 09:27:00;;;;;;;32.88;4.10;;;;;;;4.08;40.12;100832.25;5106997;28;20143;-74
2022/01/20 09:29:26;;;;;;;25.35;3.55;;;;;;;3.88;40.44;100843.53;5114048;28;20130;-75
2022/01/20 09:31:53;;;;;;;25.77;3.63;;;;;;;4.19;39.53;100834.94;5114621;28;20071;-73
2022/01/20 09:34:20;;;;;;;40.67;5.65;;;;;;;3.54;40.49;100849.50;5115010;28;20048;-75
2022/01/20 09:36:46;;;;;;;30.05;5.88;;;;;;;3.74;40.34;100837.44;5114894;28;20054;-75
2022/01/20 09:39:13;;;;;;;34.42;7.03;;;;;;;3.58;40.30;100840.34;5115695;28;20045;-73
2022/01/20 09:41:40;;;;;;;32.65;6.10;;;;;;;3.55;40.72;100853.88;5116327;28;20126;-74
2022/01/20 09:44:06;;;;;;;25.33;5.05;;;;;;;3.54;41.11;100861.91;5116977;28;20044;-73
2022/01/20 09:46:33;;;;;;;31.77;5.15;;;;;;;3.54;40.49;100860.09;5116010;28;20048;-74
2022/01/20 09:48:59;;;;;;;35.05;4.28;;;;;;;3.67;41.15;100864.53;5115057;28;20058;-74
2022/01/20 09:51:26;;;;;;;21.60;4.18;;;;;;;3.62;41.38;100873.69;5115267;28;20126;-74
2022/01/20 09:53:52;;;;;;;25.25;3.78;;;;;;;3.76;41.12;100864.72;5114934;28;20044;-76
2022/01/20 09:56:19;;;;;;;21.45;4.35;;;;;;;3.61;41.69;100860.50;5116447;27;20074;-77
2022/01/20 09:58:46;;;;;;;26.67;3.80;;;;;;;3.90;40.51;100866.34;5116348;28;20476;-76
2022/01/20 10:01:12;;;;;;;28.48;3.83;;;;;;;4.08;40.38;100861.47;5115269;28;20126;-73
2022/01/20 10:03:46;;;;;;;28.23;3.67;;;;;;;3.27;41.86;100852.31;5115628;28;20059;-76
2022/01/20 10:06:14;;;;;;;20.27;3.88;;;;;;;3.69;40.90;100858.16;5115018;28;20101;-76
2022/01/20 10:08:41;;;;;;;35.25;4.38;;;;;;;3.73;40.70;100872.88;5116448;28;20136;-78
2022/01/20 10:11:10;;;;;;;21.95;3.63;;;;;;;4.56;39.47;100874.69;5116168;28;20066;-75
2022/01/20 10:13:39;;;;;;;21.42;4.20;;;;;;;4.06;39.96;100877.50;5114932;28;20495;-75
2022/01/20 10:16:12;;;;;;;23.52;3.33;;;;;;;4.47;38.89;100872.72;5115116;28;20063;-76
2022/01/20 10:19:00;;;;;;;35.45;4.45;;;;;;;3.96;40.30;100875.66;5116098;28;20483;-77
2022/01/20 10:21:29;;;;;;;21.83;3.13;;;;;;;3.36;41.09;100878.19;5114488;28;20043;-76
2022/01/20 10:24:12;;;;;;;34.25;4.63;;;;;;;3.31;41.39;100875.03;5115084;28;20103;-78
2022/01/20 10:26:40;;;;;;;24.92;3.78;;;;;;;3.68;40.80;100885.63;5115931;28;20051;-78
2022/01/20 10:29:12;;;;;;;23.38;3.80;;;;;;;3.58;41.33;100884.59;5115885;28;20466;-78
2022/01/20 10:31:45;;;;;;;26.45;3.22;;;;;;;4.21;39.92;100885.28;5114429;28;20056;-77
2022/01/20 10:34:19;;;;;;;23.30;3.67;;;;;;;4.64;39.49;100887.38;5113899;28;20068;-77
2022/01/20 10:36:50;;;;;;;27.95;3.33;;;;;;;4.34;39.59;100886.91;5113866;28;20503;-77
2022/01/20 10:39:17;;;;;;;23.52;4.18;;;;;;;3.88;40.43;100878.88;5115071;28;20456;-75
2022/01/20 10:41:43;;;;;;;17.98;3.38;;;;;;;4.19;40.97;100872.13;5114339;28;20134;-74
2022/01/20 10:44:14;;;;;;;23.70;3.65;;;;;;;4.40;39.46;100868.84;5114998;28;20152;-75
2022/01/20 10:46:59;;;;;;;20.63;3.67;;;;;;;5.10;38.59;100891.78;5114507;28;20047;-74
2022/01/20 10:49:31;;;;;;;23.88;4.30;;;;;;;5.52;37.70;100885.72;5113454;28;20059;-74
2022/01/20 10:52:04;;;;;;;25.15;4.07;;;;;;;5.04;38.27;100890.47;5114224;28;20043;-73
2022/01/20 10:54:43;;;;;;;28.52;4.00;;;;;;;4.78;38.83;100889.81;5114526;28;20043;-76
2022/01/20 10:57:11;;;;;;;23.92;3.85;;;;;;;4.15;39.82;100880.44;5114963;28;20092;-77
2022/01/20 10:59:59;;;;;;;21.20;4.13;;;;;;;4.44;39.90;100881.78;5114391;28;20138;-77
2022/01/20 11:02:29;;;;;;;30.85;4.15;;;;;;;4.41;39.59;100887.31;5114347;28;20116;-77
2022/01/20 11:04:58;;;;;;;27.42;3.65;;;;;;;4.06;40.14;100887.28;5114872;28;20051;-77
2022/01/20 11:07:25;;;;;;;23.80;4.07;;;;;;;4.00;40.09;100883.28;5113470;28;20063;-77
2022/01/20 11:09:59;;;;;;;27.15;4.88;;;;;;;4.69;39.28;100886.03;5097288;28;20082;-77
2022/01/20 11:12:26;;;;;;;23.55;3.35;;;;;;;5.23;38.29;100893.34;5114758;28;20472;-77
2022/01/20 11:14:54;;;;;;;15.00;3.35;;;;;;;5.18;38.54;100882.25;5115306;28;20054;-77
2022/01/20 11:17:25;;;;;;;22.40;3.78;;;;;;;4.92;38.90;100878.13;5114212;28;20044;-77
2022/01/20 11:19:55;;;;;;;28.80;4.15;;;;;;;4.90;38.71;100878.25;5114157;28;20075;-77
2022/01/20 11:22:21;;;;;;;21.15;3.80;;;;;;;4.68;39.30;100871.06;5115772;28;20059;-77
2022/01/20 11:25:01;;;;;;;21.80;3.80;;;;;;;4.87;39.14;100856.34;5113439;28;20067;-77
2022/01/20 11:27:35;;;;;;;29.42;4.38;;;;;;;4.97;38.01;100865.28;5113667;28;20131;-77
2022/01/20 11:30:16;;;;;;;23.58;3.67;;;;;;;4.64;38.83;100874.09;5114558;28;20047;-77
2022/01/20 11:32:45;;;;;;;32.30;4.20;;;;;;;5.22;38.05;100881.03;5114112;28;20074;-77
2022/01/20 11:35:13;;;;;;;20.60;3.15;;;;;;;5.64;36.70;100873.22;5115693;28;20059;-74
2022/01/20 11:37:41;;;;;;;18.88;3.25;;;;;;;5.75;36.46;100869.69;5115657;28;20074;-73
2022/01/20 11:40:16;;;;;;;25.58;3.13;;;;;;;6.07;35.77;100880.34;5113989;28;20043;-73
2022/01/20 11:42:57;;;;;;;24.42;3.20;;;;;;;5.89;35.77;100887.19;5116349;28;20043;-73
2022/01/20 11:45:33;;;;;;;23.42;4.80;;;;;;;5.76;35.64;100884.69;5098288;28;20074;-74
2022/01/20 11:48:19;;;;;;;20.88;3.22;;;;;;;6.42;35.54;100879.25;5113710;28;20134;-74
2022/01/20 11:50:48;;;;;;;19.13;3.00;;;;;;;6.79;34.39;100870.78;5112849;28;20119;-74
2022/01/20 11:53:17;;;;;;;16.13;2.92;;;;;;;7.03;33.96;100871.34;5112855;28;20071;-74
2022/01/20 11:55:50;;;;;;;12.38;3.10;;;;;;;7.08;33.70;100877.09;5113642;28;20063;-74
2022/01/20 11:58:20;;;;;;;18.95;3.20;;;;;;;6.76;33.85;100877.22;5113006;28;20043;-74
2022/01/20 12:01:01;;;;;;;21.90;3.35;;;;;;;7.84;32.09;100879.31;5114050;28;20078;-73
2022/01/20 12:03:29;;;;;;;13.35;2.05;;;;;;;6.71;33.32;100876.78;5107806;28;20100;-74
2022/01/20 12:06:01;;;;;;;20.65;3.00;;;;;;;6.93;33.06;100873.13;5113606;28;20044;-72
2022/01/20 12:08:27;;;;;;;24.95;4.32;;;;;;;7.49;32.28;100877.13;5113794;28;20073;-72
2022/01/20 12:11:01;;;;;;;16.90;3.25;;;;;;;8.24;30.71;100873.03;5114295;28;20067;-74
2022/01/20 12:13:28;;;;;;;18.85;3.25;;;;;;;7.78;31.59;100886.06;5112885;28;20067;-74
2022/01/20 12:16:00;;;;;;;24.83;3.45;;;;;;;7.74;31.01;100871.28;5113917;28;20430;-73
2022/01/20 12:18:30;;;;;;;15.02;2.88;;;;;;;8.68;30.94;100873.38;5112721;28;20073;-74
2022/01/20 12:21:01;;;;;;;12.38;2.60;;;;;;;8.46;30.06;100880.75;5113470;28;20047;-74
2022/01/20 12:23:28;;;;;;;20.70;3.60;;;;;;;8.31;30.51;100877.66;5113483;28;20095;-74
2022/01/20 12:26:04;;;;;;;13.55;3.03;;;;;;;8.85;28.96;100884.19;5114360;28;20039;-74
2022/01/20 12:28:30;;;;;;;18.40;3.05;;;;;;;8.81;29.12;100884.63;5113360;28;20134;-74